Аэропорт: Талаги. Архангельск

ICAO: ULAA

METAR:
2019/05/26 13:30
ULAA 261330Z 31004MPS 9999 BKN016CB 12/09 Q0994 R26/190065 NOSIG RMK QFE744/0992
METAR:
2019/05/26 12:24
TAF ULAA 261057Z 2612/2712 27004MPS 9999 BKN012CB 
      TEMPO 2612/2616 35003G11MPS 1000 TSRA BR BKN004 BKN011CB 
     FM261600 30003MPS 6000 BKN011 
      TEMPO 2616/2706 36003G08MPS 2100 -SHRA BR BKN007 BKN011CB 
      BECMG 2706/2708 07003MPS